sensor_id;sensor_type;location;lat;lon;timestamp;pressure;altitude;pressure_sealevel;temperature;humidity
57114;BME280;42994;51.606;9.988;2023-05-08T00:01:17;99699.63;;;7.91;100.00
57114;BME280;42994;51.606;9.988;2023-05-08T00:03:44;99697.75;;;7.83;100.00
57114;BME280;42994;51.606;9.988;2023-05-08T00:06:10;99705.44;;;7.86;100.00
57114;BME280;42994;51.606;9.988;2023-05-08T00:08:37;99689.75;;;7.83;100.00
57114;BME280;42994;51.606;9.988;2023-05-08T00:11:03;99695.03;;;7.75;100.00
57114;BME280;42994;51.606;9.988;2023-05-08T00:13:31;99698.03;;;7.72;100.00
57114;BME280;42994;51.606;9.988;2023-05-08T00:15:58;99698.38;;;7.77;100.00
57114;BME280;42994;51.606;9.988;2023-05-08T00:18:25;99694.50;;;7.72;100.00
57114;BME280;42994;51.606;9.988;2023-05-08T00:20:52;99695.41;;;7.80;100.00
57114;BME280;42994;51.606;9.988;2023-05-08T00:23:18;99698.84;;;7.73;100.00
57114;BME280;42994;51.606;9.988;2023-05-08T00:25:46;99706.84;;;7.73;100.00
57114;BME280;42994;51.606;9.988;2023-05-08T00:28:13;99698.34;;;7.69;100.00
57114;BME280;42994;51.606;9.988;2023-05-08T00:30:40;99704.66;;;7.68;100.00
57114;BME280;42994;51.606;9.988;2023-05-08T00:33:07;99700.91;;;7.61;100.00
57114;BME280;42994;51.606;9.988;2023-05-08T00:35:34;99695.06;;;7.57;100.00
57114;BME280;42994;51.606;9.988;2023-05-08T00:38:00;99697.81;;;7.65;100.00
57114;BME280;42994;51.606;9.988;2023-05-08T00:40:27;99695.13;;;7.65;100.00
57114;BME280;42994;51.606;9.988;2023-05-08T00:42:54;99703.00;;;7.67;100.00
57114;BME280;42994;51.606;9.988;2023-05-08T00:45:20;99696.75;;;7.58;100.00
57114;BME280;42994;51.606;9.988;2023-05-08T00:47:48;99706.75;;;7.56;100.00
57114;BME280;42994;51.606;9.988;2023-05-08T00:50:16;99707.34;;;7.50;100.00
57114;BME280;42994;51.606;9.988;2023-05-08T00:52:43;99706.22;;;7.53;100.00
57114;BME280;42994;51.606;9.988;2023-05-08T00:55:09;99706.50;;;7.49;100.00
57114;BME280;42994;51.606;9.988;2023-05-08T00:57:37;99699.97;;;7.44;100.00
57114;BME280;42994;51.606;9.988;2023-05-08T01:00:05;99698.13;;;7.44;100.00
57114;BME280;42994;51.606;9.988;2023-05-08T01:02:32;99690.13;;;7.44;100.00
57114;BME280;42994;51.606;9.988;2023-05-08T01:05:01;99693.97;;;7.42;100.00
57114;BME280;42994;51.606;9.988;2023-05-08T01:07:28;99686.94;;;7.41;100.00
57114;BME280;42994;51.606;9.988;2023-05-08T01:09:55;99684.91;;;7.35;100.00
57114;BME280;42994;51.606;9.988;2023-05-08T01:12:27;99685.88;;;7.34;100.00
57114;BME280;42994;51.606;9.988;2023-05-08T01:15:05;99695.25;;;7.38;100.00
57114;BME280;42994;51.606;9.988;2023-05-08T01:17:40;99696.91;;;7.39;100.00
57114;BME280;42994;51.606;9.988;2023-05-08T01:20:17;99704.41;;;7.35;100.00
57114;BME280;42994;51.606;9.988;2023-05-08T01:23:04;99702.94;;;7.41;100.00
57114;BME280;42994;51.606;9.988;2023-05-08T01:25:51;99697.97;;;7.46;100.00
57114;BME280;42994;51.606;9.988;2023-05-08T01:28:58;99704.00;;;7.48;100.00
57114;BME280;42994;51.606;9.988;2023-05-08T01:31:42;99698.34;;;7.51;100.00
57114;BME280;42994;51.606;9.988;2023-05-08T01:34:20;99701.44;;;7.38;100.00
57114;BME280;42994;51.606;9.988;2023-05-08T01:36:52;99699.75;;;7.37;100.00
57114;BME280;42994;51.606;9.988;2023-05-08T01:39:25;99697.94;;;7.38;100.00
57114;BME280;42994;51.606;9.988;2023-05-08T01:42:03;99696.47;;;7.43;100.00
57114;BME280;42994;51.606;9.988;2023-05-08T01:44:35;99701.28;;;7.40;100.00
57114;BME280;42994;51.606;9.988;2023-05-08T01:47:04;99704.34;;;7.27;100.00
57114;BME280;42994;51.606;9.988;2023-05-08T01:49:38;99699.91;;;7.18;100.00
57114;BME280;42994;51.606;9.988;2023-05-08T01:52:09;99694.97;;;7.23;100.00
57114;BME280;42994;51.606;9.988;2023-05-08T01:54:42;99688.56;;;7.16;100.00
57114;BME280;42994;51.606;9.988;2023-05-08T01:57:11;99692.47;;;7.21;100.00
57114;BME280;42994;51.606;9.988;2023-05-08T01:59:40;99696.56;;;7.16;100.00
57114;BME280;42994;51.606;9.988;2023-05-08T02:02:10;99699.59;;;7.21;100.00
57114;BME280;42994;51.606;9.988;2023-05-08T02:04:40;99698.38;;;7.15;100.00
57114;BME280;42994;51.606;9.988;2023-05-08T02:07:08;99702.13;;;7.04;100.00
57114;BME280;42994;51.606;9.988;2023-05-08T02:09:35;99697.03;;;7.11;100.00
57114;BME280;42994;51.606;9.988;2023-05-08T02:12:05;99695.81;;;7.05;100.00
57114;BME280;42994;51.606;9.988;2023-05-08T02:14:33;99700.06;;;6.98;100.00
57114;BME280;42994;51.606;9.988;2023-05-08T02:17:02;99701.75;;;6.99;100.00
57114;BME280;42994;51.606;9.988;2023-05-08T02:19:30;99698.00;;;6.92;100.00
57114;BME280;42994;51.606;9.988;2023-05-08T02:22:01;99694.97;;;6.87;100.00
57114;BME280;42994;51.606;9.988;2023-05-08T02:24:31;99696.88;;;6.95;100.00
57114;BME280;42994;51.606;9.988;2023-05-08T02:26:59;99691.13;;;6.89;100.00
57114;BME280;42994;51.606;9.988;2023-05-08T02:29:26;99698.56;;;6.96;100.00
57114;BME280;42994;51.606;9.988;2023-05-08T02:31:55;99706.38;;;6.97;100.00
57114;BME280;42994;51.606;9.988;2023-05-08T02:34:23;99701.41;;;6.84;100.00
57114;BME280;42994;51.606;9.988;2023-05-08T02:36:51;99696.63;;;6.88;100.00
57114;BME280;42994;51.606;9.988;2023-05-08T02:39:24;99698.91;;;6.83;100.00
57114;BME280;42994;51.606;9.988;2023-05-08T02:41:51;99695.78;;;6.87;100.00
57114;BME280;42994;51.606;9.988;2023-05-08T02:44:18;99695.94;;;6.86;100.00
57114;BME280;42994;51.606;9.988;2023-05-08T02:46:48;99698.00;;;6.92;100.00
57114;BME280;42994;51.606;9.988;2023-05-08T02:49:32;99699.59;;;6.85;100.00
57114;BME280;42994;51.606;9.988;2023-05-08T02:52:09;99696.09;;;6.84;100.00
57114;BME280;42994;51.606;9.988;2023-05-08T02:54:42;99697.22;;;6.82;100.00
57114;BME280;42994;51.606;9.988;2023-05-08T02:57:17;99698.69;;;6.76;100.00
57114;BME280;42994;51.606;9.988;2023-05-08T02:59:52;99693.56;;;6.65;100.00
57114;BME280;42994;51.606;9.988;2023-05-08T03:02:27;99686.19;;;6.77;100.00
57114;BME280;42994;51.606;9.988;2023-05-08T03:04:59;99681.47;;;6.70;100.00
57114;BME280;42994;51.606;9.988;2023-05-08T03:07:28;99683.06;;;6.63;100.00
57114;BME280;42994;51.606;9.988;2023-05-08T03:10:00;99684.13;;;6.70;100.00
57114;BME280;42994;51.606;9.988;2023-05-08T03:12:28;99682.16;;;6.72;100.00
57114;BME280;42994;51.606;9.988;2023-05-08T03:15:01;99684.63;;;6.56;100.00
57114;BME280;42994;51.606;9.988;2023-05-08T03:17:31;99683.47;;;6.59;100.00
57114;BME280;42994;51.606;9.988;2023-05-08T03:20:02;99683.94;;;6.54;100.00
57114;BME280;42994;51.606;9.988;2023-05-08T03:22:31;99678.91;;;6.51;100.00
57114;BME280;42994;51.606;9.988;2023-05-08T03:25:03;99690.66;;;6.58;100.00
57114;BME280;42994;51.606;9.988;2023-05-08T03:27:32;99681.16;;;6.56;100.00
57114;BME280;42994;51.606;9.988;2023-05-08T03:30:00;99675.50;;;6.59;100.00
57114;BME280;42994;51.606;9.988;2023-05-08T03:32:28;99676.09;;;6.52;100.00
57114;BME280;42994;51.606;9.988;2023-05-08T03:34:58;99675.56;;;6.49;100.00
57114;BME280;42994;51.606;9.988;2023-05-08T03:37:26;99677.31;;;6.58;100.00
57114;BME280;42994;51.606;9.988;2023-05-08T03:39:53;99678.50;;;6.46;100.00
57114;BME280;42994;51.606;9.988;2023-05-08T03:42:22;99676.75;;;6.37;100.00
57114;BME280;42994;51.606;9.988;2023-05-08T03:44:50;99685.81;;;6.44;100.00
57114;BME280;42994;51.606;9.988;2023-05-08T03:47:17;99680.41;;;6.35;100.00
57114;BME280;42994;51.606;9.988;2023-05-08T03:49:45;99670.03;;;6.32;100.00
57114;BME280;42994;51.606;9.988;2023-05-08T03:52:13;99670.72;;;6.34;100.00
57114;BME280;42994;51.606;9.988;2023-05-08T03:54:40;99669.06;;;6.33;100.00
57114;BME280;42994;51.606;9.988;2023-05-08T03:57:07;99674.47;;;6.42;100.00
57114;BME280;42994;51.606;9.988;2023-05-08T03:59:41;99674.09;;;6.37;100.00
57114;BME280;42994;51.606;9.988;2023-05-08T04:02:16;99674.47;;;6.42;100.00
57114;BME280;42994;51.606;9.988;2023-05-08T04:04:47;99674.75;;;6.39;100.00
57114;BME280;42994;51.606;9.988;2023-05-08T04:07:23;99674.63;;;6.40;100.00
57114;BME280;42994;51.606;9.988;2023-05-08T04:09:58;99680.41;;;6.35;100.00
57114;BME280;42994;51.606;9.988;2023-05-08T04:12:32;99682.19;;;6.45;100.00
57114;BME280;42994;51.606;9.988;2023-05-08T04:15:07;99677.88;;;6.34;100.00
57114;BME280;42994;51.606;9.988;2023-05-08T04:17:41;99680.41;;;6.35;100.00
57114;BME280;42994;51.606;9.988;2023-05-08T04:20:12;99680.09;;;6.39;100.00
57114;BME280;42994;51.606;9.988;2023-05-08T04:22:41;99682.06;;;6.37;100.00
57114;BME280;42994;51.606;9.988;2023-05-08T04:25:11;99686.81;;;6.43;100.00
57114;BME280;42994;51.606;9.988;2023-05-08T04:27:40;99679.81;;;6.42;100.00
57114;BME280;42994;51.606;9.988;2023-05-08T04:30:10;99677.16;;;6.42;100.00
57114;BME280;42994;51.606;9.988;2023-05-08T04:32:38;99682.06;;;6.37;100.00
57114;BME280;42994;51.606;9.988;2023-05-08T04:35:05;99680.50;;;6.44;100.00
57114;BME280;42994;51.606;9.988;2023-05-08T04:37:33;99676.53;;;6.48;100.00
57114;BME280;42994;51.606;9.988;2023-05-08T04:40:02;99677.81;;;6.44;100.00
57114;BME280;42994;51.606;9.988;2023-05-08T04:42:30;99679.19;;;6.48;100.00
57114;BME280;42994;51.606;9.988;2023-05-08T04:45:01;99681.72;;;6.49;100.00
57114;BME280;42994;51.606;9.988;2023-05-08T04:47:30;99680.75;;;6.50;100.00
57114;BME280;42994;51.606;9.988;2023-05-08T04:49:56;99685.59;;;6.55;100.00
57114;BME280;42994;51.606;9.988;2023-05-08T04:52:24;99686.00;;;6.60;100.00
57114;BME280;42994;51.606;9.988;2023-05-08T04:54:51;99693.91;;;6.52;100.00
57114;BME280;42994;51.606;9.988;2023-05-08T04:57:18;99694.31;;;6.57;100.00
57114;BME280;42994;51.606;9.988;2023-05-08T04:59:44;99684.41;;;6.67;100.00
57114;BME280;42994;51.606;9.988;2023-05-08T05:02:12;99688.63;;;6.70;100.00
57114;BME280;42994;51.606;9.988;2023-05-08T05:04:40;99686.78;;;6.70;100.00
57114;BME280;42994;51.606;9.988;2023-05-08T05:07:07;99692.06;;;6.80;100.00
57114;BME280;42994;51.606;9.988;2023-05-08T05:09:34;99696.25;;;6.83;100.00
57114;BME280;42994;51.606;9.988;2023-05-08T05:12:02;99694.66;;;6.90;100.00
57114;BME280;42994;51.606;9.988;2023-05-08T05:14:29;99696.47;;;6.89;100.00
57114;BME280;42994;51.606;9.988;2023-05-08T05:16:56;99705.16;;;7.09;100.00
57114;BME280;42994;51.606;9.988;2023-05-08T05:19:23;99709.44;;;7.02;100.00
57114;BME280;42994;51.606;9.988;2023-05-08T05:21:51;99709.44;;;7.02;100.00
57114;BME280;42994;51.606;9.988;2023-05-08T05:24:18;99709.28;;;7.04;100.00
57114;BME280;42994;51.606;9.988;2023-05-08T05:26:45;99709.13;;;7.05;100.00
57114;BME280;42994;51.606;9.988;2023-05-08T05:29:11;99709.44;;;7.02;100.00
57114;BME280;42994;51.606;9.988;2023-05-08T05:31:38;99699.09;;;6.99;100.00
57114;BME280;42994;51.606;9.988;2023-05-08T05:34:05;99711.31;;;7.10;100.00
57114;BME280;42994;51.606;9.988;2023-05-08T05:36:32;99712.72;;;7.14;100.00
57114;BME280;42994;51.606;9.988;2023-05-08T05:39:00;99712.88;;;7.12;100.00
57114;BME280;42994;51.606;9.988;2023-05-08T05:41:28;99706.22;;;7.17;100.00
57114;BME280;42994;51.606;9.988;2023-05-08T05:43:54;99711.66;;;7.25;100.00
57114;BME280;42994;51.606;9.988;2023-05-08T05:46:21;99710.06;;;7.32;100.00
57114;BME280;42994;51.606;9.988;2023-05-08T05:48:52;99707.59;;;7.39;100.00
57114;BME280;42994;51.606;9.988;2023-05-08T05:51:19;99719.47;;;7.44;100.00
57114;BME280;42994;51.606;9.988;2023-05-08T05:53:46;99718.63;;;7.62;100.00
57114;BME280;42994;51.606;9.988;2023-05-08T05:56:14;99725.72;;;7.53;100.00
57114;BME280;42994;51.606;9.988;2023-05-08T05:58:40;99723.03;;;7.71;100.00
57114;BME280;42994;51.606;9.988;2023-05-08T06:01:09;99719.72;;;7.77;100.00
57114;BME280;42994;51.606;9.988;2023-05-08T06:03:36;99714.22;;;7.79;100.00
57114;BME280;42994;51.606;9.988;2023-05-08T06:06:03;99716.81;;;7.88;100.00
57114;BME280;42994;51.606;9.988;2023-05-08T06:08:30;99716.41;;;8.01;100.00
57114;BME280;42994;51.606;9.988;2023-05-08T06:10:56;99718.94;;;8.11;100.00
57114;BME280;42994;51.606;9.988;2023-05-08T06:13:24;99725.16;;;8.46;100.00
57114;BME280;42994;51.606;9.988;2023-05-08T06:15:53;99723.66;;;8.43;100.00
57114;BME280;42994;51.606;9.988;2023-05-08T06:18:20;99720.47;;;8.48;100.00
57114;BME280;42994;51.606;9.988;2023-05-08T06:20:47;99723.59;;;8.78;100.00
57114;BME280;42994;51.606;9.988;2023-05-08T06:23:14;99724.84;;;9.00;100.00
57114;BME280;42994;51.606;9.988;2023-05-08T06:25:40;99723.38;;;9.38;100.00
57114;BME280;42994;51.606;9.988;2023-05-08T06:28:07;99719.03;;;9.46;100.00
57114;BME280;42994;51.606;9.988;2023-05-08T06:30:35;99719.19;;;9.28;100.00
57114;BME280;42994;51.606;9.988;2023-05-08T06:33:01;99716.00;;;9.24;100.00
57114;BME280;42994;51.606;9.988;2023-05-08T06:35:28;99711.00;;;9.62;100.00
57114;BME280;42994;51.606;9.988;2023-05-08T06:37:54;99724.38;;;9.70;100.00
57114;BME280;42994;51.606;9.988;2023-05-08T06:40:21;99724.69;;;9.67;100.00
57114;BME280;42994;51.606;9.988;2023-05-08T06:42:48;99719.03;;;9.54;100.00
57114;BME280;42994;51.606;9.988;2023-05-08T06:45:15;99717.19;;;9.46;100.00
57114;BME280;42994;51.606;9.988;2023-05-08T06:47:43;99720.38;;;9.33;100.00
57114;BME280;42994;51.606;9.988;2023-05-08T06:50:10;99719.03;;;9.37;100.00
57114;BME280;42994;51.606;9.988;2023-05-08T06:52:37;99716.88;;;9.33;100.00
57114;BME280;42994;51.606;9.988;2023-05-08T06:55:04;99725.88;;;9.40;100.00
57114;BME280;42994;51.606;9.988;2023-05-08T06:57:31;99726.88;;;9.47;100.00
57114;BME280;42994;51.606;9.988;2023-05-08T06:59:57;99727.91;;;9.62;100.00
57114;BME280;42994;51.606;9.988;2023-05-08T07:02:24;99718.50;;;9.83;100.00
57114;BME280;42994;51.606;9.988;2023-05-08T07:04:52;99730.41;;;9.80;100.00
57114;BME280;42994;51.606;9.988;2023-05-08T07:07:18;99724.78;;;10.23;100.00
57114;BME280;42994;51.606;9.988;2023-05-08T07:09:45;99731.53;;;9.94;100.00
57114;BME280;42994;51.606;9.988;2023-05-08T07:12:11;99727.84;;;10.12;100.00
57114;BME280;42994;51.606;9.988;2023-05-08T07:14:40;99726.06;;;10.44;100.00
57114;BME280;42994;51.606;9.988;2023-05-08T07:17:07;99731.34;;;10.68;100.00
57114;BME280;42994;51.606;9.988;2023-05-08T07:19:34;99739.41;;;11.00;100.00
57114;BME280;42994;51.606;9.988;2023-05-08T07:22:03;99739.09;;;10.94;100.00
57114;BME280;42994;51.606;9.988;2023-05-08T07:24:31;99738.03;;;11.04;100.00
57114;BME280;42994;51.606;9.988;2023-05-08T07:26:57;99743.78;;;11.01;100.00
57114;BME280;42994;51.606;9.988;2023-05-08T07:29:24;99737.13;;;11.43;100.00
57114;BME280;42994;51.606;9.988;2023-05-08T07:31:51;99735.91;;;11.45;100.00
57114;BME280;42994;51.606;9.988;2023-05-08T07:34:18;99737.94;;;11.66;100.00
57114;BME280;42994;51.606;9.988;2023-05-08T07:36:45;99746.56;;;11.53;100.00
57114;BME280;42994;51.606;9.988;2023-05-08T07:39:13;99741.94;;;12.08;100.00
57114;BME280;42994;51.606;9.988;2023-05-08T07:41:39;99735.06;;;12.21;100.00
57114;BME280;42994;51.606;9.988;2023-05-08T07:44:06;99742.50;;;12.34;100.00
57114;BME280;42994;51.606;9.988;2023-05-08T07:46:33;99746.22;;;12.47;100.00
57114;BME280;42994;51.606;9.988;2023-05-08T07:48:59;99740.19;;;12.30;100.00
57114;BME280;42994;51.606;9.988;2023-05-08T07:51:26;99738.94;;;12.93;100.00
57114;BME280;42994;51.606;9.988;2023-05-08T07:53:53;99739.91;;;12.40;100.00
57114;BME280;42994;51.606;9.988;2023-05-08T07:56:21;99735.28;;;13.00;100.00
57114;BME280;42994;51.606;9.988;2023-05-08T07:58:47;99742.97;;;12.67;100.00
57114;BME280;42994;51.606;9.988;2023-05-08T08:01:14;99731.81;;;12.70;100.00
57114;BME280;42994;51.606;9.988;2023-05-08T08:03:42;99741.09;;;12.67;100.00
57114;BME280;42994;51.606;9.988;2023-05-08T08:06:09;99731.44;;;12.73;100.00
57114;BME280;42994;51.606;9.988;2023-05-08T08:08:36;99743.03;;;12.74;100.00
57114;BME280;42994;51.606;9.988;2023-05-08T08:11:03;99746.00;;;12.79;100.00
57114;BME280;42994;51.606;9.988;2023-05-08T08:13:31;99745.97;;;12.94;100.00
57114;BME280;42994;51.606;9.988;2023-05-08T08:15:58;99743.28;;;12.94;100.00
57114;BME280;42994;51.606;9.988;2023-05-08T08:18:25;99738.03;;;12.85;100.00
57114;BME280;42994;51.606;9.988;2023-05-08T08:20:51;99738.22;;;12.84;100.00
57114;BME280;42994;51.606;9.988;2023-05-08T08:23:18;99735.88;;;13.17;100.00
57114;BME280;42994;51.606;9.988;2023-05-08T08:25:44;99744.22;;;13.22;100.00
57114;BME280;42994;51.606;9.988;2023-05-08T08:28:11;99737.84;;;13.23;100.00
57114;BME280;42994;51.606;9.988;2023-05-08T08:30:39;99740.50;;;13.60;100.00
57114;BME280;42994;51.606;9.988;2023-05-08T08:33:06;99734.97;;;13.46;100.00
57114;BME280;42994;51.606;9.988;2023-05-08T08:35:32;99732.72;;;13.72;100.00
57114;BME280;42994;51.606;9.988;2023-05-08T08:37:59;99744.44;;;13.86;100.00
57114;BME280;42994;51.606;9.988;2023-05-08T08:40:26;99739.53;;;14.24;100.00
57114;BME280;42994;51.606;9.988;2023-05-08T08:42:53;99739.03;;;14.49;100.00
57114;BME280;42994;51.606;9.988;2023-05-08T08:45:20;99741.47;;;14.37;100.00
57114;BME280;42994;51.606;9.988;2023-05-08T08:47:51;99747.38;;;14.95;100.00
57114;BME280;42994;51.606;9.988;2023-05-08T08:50:18;99736.03;;;15.13;100.00
57114;BME280;42994;51.606;9.988;2023-05-08T08:52:51;99741.91;;;14.75;100.00
57114;BME280;42994;51.606;9.988;2023-05-08T08:55:21;99740.25;;;15.43;100.00
57114;BME280;42994;51.606;9.988;2023-05-08T08:57:58;99733.59;;;15.45;100.00
57114;BME280;42994;51.606;9.988;2023-05-08T09:00:29;99734.63;;;15.37;100.00
57114;BME280;42994;51.606;9.988;2023-05-08T09:02:57;99738.38;;;15.56;100.00
57114;BME280;42994;51.606;9.988;2023-05-08T09:05:24;99736.09;;;15.67;100.00
57114;BME280;42994;51.606;9.988;2023-05-08T09:07:53;99740.25;;;15.49;100.00
57114;BME280;42994;51.606;9.988;2023-05-08T09:10:21;99740.63;;;15.26;100.00
57114;BME280;42994;51.606;9.988;2023-05-08T09:12:49;99749.31;;;15.22;100.00
57114;BME280;42994;51.606;9.988;2023-05-08T09:15:16;99747.69;;;15.27;100.00
57114;BME280;42994;51.606;9.988;2023-05-08T09:17:42;99744.41;;;15.65;100.00
57114;BME280;42994;51.606;9.988;2023-05-08T09:20:13;99745.06;;;15.81;100.00
57114;BME280;42994;51.606;9.988;2023-05-08T09:22:41;99741.91;;;15.64;100.00
57114;BME280;42994;51.606;9.988;2023-05-08T09:25:09;99734.66;;;15.57;100.00
57114;BME280;42994;51.606;9.988;2023-05-08T09:27:35;99745.22;;;15.46;100.00
57114;BME280;42994;51.606;9.988;2023-05-08T09:30:04;99743.22;;;15.74;100.00
57114;BME280;42994;51.606;9.988;2023-05-08T09:32:32;99749.41;;;16.15;100.00
57114;BME280;42994;51.606;9.988;2023-05-08T09:34:59;99747.13;;;16.25;100.00
57114;BME280;42994;51.606;9.988;2023-05-08T09:37:27;99746.31;;;16.18;100.00
57114;BME280;42994;51.606;9.988;2023-05-08T09:40:11;99738.97;;;16.52;100.00
57114;BME280;42994;51.606;9.988;2023-05-08T09:42:38;99741.63;;;16.65;100.00
57114;BME280;42994;51.606;9.988;2023-05-08T09:45:07;99741.81;;;16.70;100.00
57114;BME280;42994;51.606;9.988;2023-05-08T09:47:34;99745.59;;;16.56;100.00
57114;BME280;42994;51.606;9.988;2023-05-08T09:50:02;99749.22;;;16.23;100.00
57114;BME280;42994;51.606;9.988;2023-05-08T09:52:31;99738.56;;;16.42;100.00
57114;BME280;42994;51.606;9.988;2023-05-08T09:55:00;99738.84;;;16.79;100.00
57114;BME280;42994;51.606;9.988;2023-05-08T09:57:27;99736.00;;;16.53;100.00
57114;BME280;42994;51.606;9.988;2023-05-08T10:00:02;99735.59;;;16.63;100.00
57114;BME280;42994;51.606;9.988;2023-05-08T10:02:32;99737.38;;;16.96;100.00
57114;BME280;42994;51.606;9.988;2023-05-08T10:04:59;99746.78;;;16.87;100.00
57114;BME280;42994;51.606;9.988;2023-05-08T10:07:27;99738.03;;;16.78;100.00
57114;BME280;42994;51.606;9.988;2023-05-08T10:10:00;99740.97;;;17.22;100.00
57114;BME280;42994;51.606;9.988;2023-05-08T10:12:27;99732.66;;;17.48;100.00
57114;BME280;42994;51.606;9.988;2023-05-08T10:14:54;99734.19;;;16.99;100.00
57114;BME280;42994;51.606;9.988;2023-05-08T10:17:25;99726.53;;;17.35;100.00
57114;BME280;42994;51.606;9.988;2023-05-08T10:19:57;99718.97;;;17.43;100.00
57114;BME280;42994;51.606;9.988;2023-05-08T10:22:26;99712.75;;;17.93;100.00
57114;BME280;42994;51.606;9.988;2023-05-08T10:24:55;99720.72;;;17.81;100.00
57114;BME280;42994;51.606;9.988;2023-05-08T10:27:32;99718.69;;;17.52;100.00
57114;BME280;42994;51.606;9.988;2023-05-08T10:30:01;99715.72;;;17.85;100.00
57114;BME280;42994;51.606;9.988;2023-05-08T10:32:34;99720.19;;;17.73;100.00
57114;BME280;42994;51.606;9.988;2023-05-08T10:35:06;99704.25;;;17.83;100.00
57114;BME280;42994;51.606;9.988;2023-05-08T10:37:35;99703.34;;;18.14;100.00
57114;BME280;42994;51.606;9.988;2023-05-08T10:40:03;99697.47;;;17.99;100.00
57114;BME280;42994;51.606;9.988;2023-05-08T10:42:32;99695.31;;;18.26;100.00
57114;BME280;42994;51.606;9.988;2023-05-08T10:44:59;99699.59;;;18.15;100.00
57114;BME280;42994;51.606;9.988;2023-05-08T10:47:31;99693.78;;;18.12;100.00
57114;BME280;42994;51.606;9.988;2023-05-08T10:50:03;99690.38;;;17.98;100.00
57114;BME280;42994;51.606;9.988;2023-05-08T10:52:35;99687.00;;;18.02;100.00
57114;BME280;42994;51.606;9.988;2023-05-08T10:55:19;99696.28;;;18.13;100.00
57114;BME280;42994;51.606;9.988;2023-05-08T10:58:05;99696.13;;;18.27;100.00
57114;BME280;42994;51.606;9.988;2023-05-08T11:03:40;99679.03;;;18.26;100.00
57114;BME280;42994;51.606;9.988;2023-05-08T11:06:08;99681.38;;;18.22;100.00
57114;BME280;42994;51.606;9.988;2023-05-08T11:08:43;99685.44;;;18.32;100.00
57114;BME280;42994;51.606;9.988;2023-05-08T11:11:19;99682.88;;;18.37;100.00
57114;BME280;42994;51.606;9.988;2023-05-08T11:13:51;99679.47;;;18.41;100.00
57114;BME280;42994;51.606;9.988;2023-05-08T11:17:06;99670.66;;;18.46;100.00
57114;BME280;42994;51.606;9.988;2023-05-08T11:19:33;99672.47;;;18.34;100.00
57114;BME280;42994;51.606;9.988;2023-05-08T11:22:14;99671.47;;;18.65;100.00
57114;BME280;42994;51.606;9.988;2023-05-08T11:24:47;99665.06;;;18.41;100.00
57114;BME280;42994;51.606;9.988;2023-05-08T11:27:14;99662.19;;;18.73;100.00
57114;BME280;42994;51.606;9.988;2023-05-08T11:29:42;99661.72;;;18.76;100.00
57114;BME280;42994;51.606;9.988;2023-05-08T11:32:10;99661.44;;;18.84;100.00
57114;BME280;42994;51.606;9.988;2023-05-08T11:34:46;99663.84;;;18.74;100.00
57114;BME280;42994;51.606;9.988;2023-05-08T11:37:17;99663.09;;;18.85;100.00
57114;BME280;42994;51.606;9.988;2023-05-08T11:39:44;99650.25;;;18.92;100.00
57114;BME280;42994;51.606;9.988;2023-05-08T11:42:33;99654.66;;;19.05;100.00
57114;BME280;42994;51.606;9.988;2023-05-08T11:45:04;99660.19;;;18.98;100.00
57114;BME280;42994;51.606;9.988;2023-05-08T11:47:35;99645.41;;;18.94;100.00
57114;BME280;42994;51.606;9.988;2023-05-08T11:50:02;99640.31;;;18.68;100.00
57114;BME280;42994;51.606;9.988;2023-05-08T11:52:30;99644.75;;;19.11;100.00
57114;BME280;42994;51.606;9.988;2023-05-08T11:55:00;99647.28;;;18.94;100.00
57114;BME280;42994;51.606;9.988;2023-05-08T11:57:29;99651.41;;;19.27;100.00
57114;BME280;42994;51.606;9.988;2023-05-08T11:59:56;99656.53;;;19.47;100.00
57114;BME280;42994;51.606;9.988;2023-05-08T12:02:35;99650.38;;;19.39;100.00
57114;BME280;42994;51.606;9.988;2023-05-08T12:05:02;99650.00;;;19.24;100.00
57114;BME280;42994;51.606;9.988;2023-05-08T12:07:29;99653.31;;;19.26;100.00
57114;BME280;42994;51.606;9.988;2023-05-08T12:09:56;99653.25;;;19.14;100.00
57114;BME280;42994;51.606;9.988;2023-05-08T12:12:23;99652.63;;;19.43;100.00
57114;BME280;42994;51.606;9.988;2023-05-08T12:15:04;99655.06;;;19.20;100.00
57114;BME280;42994;51.606;9.988;2023-05-08T12:17:30;99646.69;;;19.34;100.00
57114;BME280;42994;51.606;9.988;2023-05-08T12:20:08;99656.53;;;19.58;100.00
57114;BME280;42994;51.606;9.988;2023-05-08T12:22:35;99650.75;;;19.67;100.00
57114;BME280;42994;51.606;9.988;2023-05-08T12:25:02;99650.69;;;19.73;100.00
57114;BME280;42994;51.606;9.988;2023-05-08T12:27:29;99650.31;;;19.82;100.00
57114;BME280;42994;51.606;9.988;2023-05-08T12:29:56;99645.78;;;19.64;100.00
57114;BME280;42994;51.606;9.988;2023-05-08T12:32:23;99651.28;;;19.75;100.00
57114;BME280;42994;51.606;9.988;2023-05-08T12:34:50;99653.47;;;19.67;100.00
57114;BME280;42994;51.606;9.988;2023-05-08T12:37:25;99653.97;;;19.87;100.00
57114;BME280;42994;51.606;9.988;2023-05-08T12:39:52;99652.69;;;19.78;100.00
57114;BME280;42994;51.606;9.988;2023-05-08T12:42:19;99655.97;;;19.80;99.02
57114;BME280;42994;51.606;9.988;2023-05-08T12:44:49;99653.81;;;19.58;99.12
57114;BME280;42994;51.606;9.988;2023-05-08T12:47:17;99655.72;;;19.70;99.93
57114;BME280;42994;51.606;9.988;2023-05-08T12:49:44;99647.00;;;19.80;99.02
57114;BME280;42994;51.606;9.988;2023-05-08T12:52:14;99656.00;;;19.92;95.51
57114;BME280;42994;51.606;9.988;2023-05-08T12:54:47;99654.31;;;19.91;95.60
57114;BME280;42994;51.606;9.988;2023-05-08T12:57:15;99645.06;;;20.27;97.47
57114;BME280;42994;51.606;9.988;2023-05-08T12:59:43;99643.44;;;20.03;94.65
57114;BME280;42994;51.606;9.988;2023-05-08T13:02:14;99642.84;;;19.89;90.91
57114;BME280;42994;51.606;9.988;2023-05-08T13:04:41;99647.47;;;19.88;90.59
57114;BME280;42994;51.606;9.988;2023-05-08T13:07:08;99639.06;;;20.13;91.19
57114;BME280;42994;51.606;9.988;2023-05-08T13:09:35;99637.88;;;19.86;90.90